sensor_id;sensor_type;location;lat;lon;timestamp;P1;durP1;ratioP1;P2;durP2;ratioP2
42226;SDS011;27892;52.378;13.122;2024-03-02T00:02:12;24.33;;;15.77;;
42226;SDS011;27892;52.378;13.122;2024-03-02T00:04:43;25.33;;;17.20;;
42226;SDS011;27892;52.378;13.122;2024-03-02T00:07:10;22.60;;;15.23;;
42226;SDS011;27892;52.378;13.122;2024-03-02T00:09:39;20.70;;;14.33;;
42226;SDS011;27892;52.378;13.122;2024-03-02T00:12:05;17.83;;;12.63;;
42226;SDS011;27892;52.378;13.122;2024-03-02T00:14:31;17.73;;;12.00;;
42226;SDS011;27892;52.378;13.122;2024-03-02T00:16:57;20.43;;;13.13;;
42226;SDS011;27892;52.378;13.122;2024-03-02T00:19:24;18.90;;;13.47;;
42226;SDS011;27892;52.378;13.122;2024-03-02T00:21:50;19.70;;;13.10;;
42226;SDS011;27892;52.378;13.122;2024-03-02T00:24:31;18.53;;;12.67;;
42226;SDS011;27892;52.378;13.122;2024-03-02T00:27:00;16.87;;;11.90;;
42226;SDS011;27892;52.378;13.122;2024-03-02T00:29:29;17.00;;;11.77;;
42226;SDS011;27892;52.378;13.122;2024-03-02T00:31:55;20.27;;;13.73;;
42226;SDS011;27892;52.378;13.122;2024-03-02T00:34:21;21.50;;;13.90;;
42226;SDS011;27892;52.378;13.122;2024-03-02T00:36:47;21.07;;;13.83;;
42226;SDS011;27892;52.378;13.122;2024-03-02T00:39:14;21.03;;;14.33;;
42226;SDS011;27892;52.378;13.122;2024-03-02T00:41:42;21.20;;;13.87;;
42226;SDS011;27892;52.378;13.122;2024-03-02T00:44:09;22.27;;;14.33;;
42226;SDS011;27892;52.378;13.122;2024-03-02T00:46:40;19.37;;;12.53;;
42226;SDS011;27892;52.378;13.122;2024-03-02T00:49:12;18.70;;;12.10;;
42226;SDS011;27892;52.378;13.122;2024-03-02T00:51:45;18.20;;;12.33;;
42226;SDS011;27892;52.378;13.122;2024-03-02T00:54:15;16.97;;;11.73;;
42226;SDS011;27892;52.378;13.122;2024-03-02T00:56:49;16.50;;;11.87;;
42226;SDS011;27892;52.378;13.122;2024-03-02T00:59:16;18.43;;;12.23;;
42226;SDS011;27892;52.378;13.122;2024-03-02T01:01:42;18.53;;;12.80;;
42226;SDS011;27892;52.378;13.122;2024-03-02T01:04:08;18.00;;;12.83;;
42226;SDS011;27892;52.378;13.122;2024-03-02T01:06:35;19.43;;;13.23;;
42226;SDS011;27892;52.378;13.122;2024-03-02T01:09:01;18.17;;;12.30;;
42226;SDS011;27892;52.378;13.122;2024-03-02T01:11:27;19.53;;;13.30;;
42226;SDS011;27892;52.378;13.122;2024-03-02T01:13:53;18.13;;;12.47;;
42226;SDS011;27892;52.378;13.122;2024-03-02T01:16:19;17.63;;;12.23;;
42226;SDS011;27892;52.378;13.122;2024-03-02T01:18:45;17.33;;;11.90;;
42226;SDS011;27892;52.378;13.122;2024-03-02T01:21:11;15.67;;;11.47;;
42226;SDS011;27892;52.378;13.122;2024-03-02T01:23:37;16.73;;;10.97;;
42226;SDS011;27892;52.378;13.122;2024-03-02T01:26:03;15.83;;;11.33;;
42226;SDS011;27892;52.378;13.122;2024-03-02T01:28:29;19.03;;;12.80;;
42226;SDS011;27892;52.378;13.122;2024-03-02T01:30:55;18.67;;;12.40;;
42226;SDS011;27892;52.378;13.122;2024-03-02T01:33:23;18.27;;;12.23;;
42226;SDS011;27892;52.378;13.122;2024-03-02T01:35:49;17.33;;;12.30;;
42226;SDS011;27892;52.378;13.122;2024-03-02T01:38:15;16.73;;;11.87;;
42226;SDS011;27892;52.378;13.122;2024-03-02T01:40:41;16.63;;;11.90;;
42226;SDS011;27892;52.378;13.122;2024-03-02T01:43:09;14.60;;;10.80;;
42226;SDS011;27892;52.378;13.122;2024-03-02T01:45:35;15.07;;;10.60;;
42226;SDS011;27892;52.378;13.122;2024-03-02T01:48:02;14.20;;;10.60;;
42226;SDS011;27892;52.378;13.122;2024-03-02T01:50:32;14.60;;;10.53;;
42226;SDS011;27892;52.378;13.122;2024-03-02T01:52:59;16.37;;;11.43;;
42226;SDS011;27892;52.378;13.122;2024-03-02T01:55:25;15.67;;;11.30;;
42226;SDS011;27892;52.378;13.122;2024-03-02T01:57:52;16.93;;;12.10;;
42226;SDS011;27892;52.378;13.122;2024-03-02T02:00:22;15.30;;;11.30;;
42226;SDS011;27892;52.378;13.122;2024-03-02T02:02:50;16.13;;;11.37;;
42226;SDS011;27892;52.378;13.122;2024-03-02T02:05:16;17.10;;;11.90;;
42226;SDS011;27892;52.378;13.122;2024-03-02T02:07:45;16.37;;;11.93;;
42226;SDS011;27892;52.378;13.122;2024-03-02T02:10:11;16.50;;;11.90;;
42226;SDS011;27892;52.378;13.122;2024-03-02T02:12:37;17.80;;;11.50;;
42226;SDS011;27892;52.378;13.122;2024-03-02T02:15:03;17.10;;;11.50;;
42226;SDS011;27892;52.378;13.122;2024-03-02T02:17:46;15.83;;;10.90;;
42226;SDS011;27892;52.378;13.122;2024-03-02T02:20:11;16.67;;;11.23;;
42226;SDS011;27892;52.378;13.122;2024-03-02T02:22:37;17.00;;;11.47;;
42226;SDS011;27892;52.378;13.122;2024-03-02T02:25:03;17.17;;;11.83;;
42226;SDS011;27892;52.378;13.122;2024-03-02T02:27:28;16.77;;;11.37;;
42226;SDS011;27892;52.378;13.122;2024-03-02T02:29:55;18.00;;;12.03;;
42226;SDS011;27892;52.378;13.122;2024-03-02T02:32:21;18.23;;;12.50;;
42226;SDS011;27892;52.378;13.122;2024-03-02T02:34:47;16.70;;;11.73;;
42226;SDS011;27892;52.378;13.122;2024-03-02T02:37:17;16.53;;;11.47;;
42226;SDS011;27892;52.378;13.122;2024-03-02T02:39:43;18.27;;;12.57;;
42226;SDS011;27892;52.378;13.122;2024-03-02T02:42:09;17.27;;;12.23;;
42226;SDS011;27892;52.378;13.122;2024-03-02T02:44:34;16.20;;;11.93;;
42226;SDS011;27892;52.378;13.122;2024-03-02T02:47:00;25.30;;;16.80;;
42226;SDS011;27892;52.378;13.122;2024-03-02T02:49:25;26.67;;;18.10;;
42226;SDS011;27892;52.378;13.122;2024-03-02T02:51:51;30.27;;;19.87;;
42226;SDS011;27892;52.378;13.122;2024-03-02T02:54:17;29.00;;;18.43;;
42226;SDS011;27892;52.378;13.122;2024-03-02T02:56:43;24.80;;;16.17;;
42226;SDS011;27892;52.378;13.122;2024-03-02T02:59:08;25.00;;;16.30;;
42226;SDS011;27892;52.378;13.122;2024-03-02T03:01:34;23.80;;;16.00;;
42226;SDS011;27892;52.378;13.122;2024-03-02T03:03:59;25.80;;;16.37;;
42226;SDS011;27892;52.378;13.122;2024-03-02T03:06:25;24.27;;;16.07;;
42226;SDS011;27892;52.378;13.122;2024-03-02T03:08:51;21.00;;;14.60;;
42226;SDS011;27892;52.378;13.122;2024-03-02T03:11:35;20.27;;;13.13;;
42226;SDS011;27892;52.378;13.122;2024-03-02T03:14:00;17.67;;;12.03;;
42226;SDS011;27892;52.378;13.122;2024-03-02T03:16:26;19.63;;;12.80;;
42226;SDS011;27892;52.378;13.122;2024-03-02T03:18:52;15.43;;;10.60;;
42226;SDS011;27892;52.378;13.122;2024-03-02T03:21:18;16.83;;;11.33;;
42226;SDS011;27892;52.378;13.122;2024-03-02T03:23:44;12.40;;;9.17;;
42226;SDS011;27892;52.378;13.122;2024-03-02T03:26:10;16.30;;;10.43;;
42226;SDS011;27892;52.378;13.122;2024-03-02T03:28:35;17.30;;;11.20;;
42226;SDS011;27892;52.378;13.122;2024-03-02T03:31:01;17.00;;;11.10;;
42226;SDS011;27892;52.378;13.122;2024-03-02T03:33:28;15.30;;;10.83;;
42226;SDS011;27892;52.378;13.122;2024-03-02T03:35:54;17.80;;;11.87;;
42226;SDS011;27892;52.378;13.122;2024-03-02T03:38:19;16.47;;;11.50;;
42226;SDS011;27892;52.378;13.122;2024-03-02T03:40:45;17.50;;;11.73;;
42226;SDS011;27892;52.378;13.122;2024-03-02T03:43:11;14.83;;;10.53;;
42226;SDS011;27892;52.378;13.122;2024-03-02T03:45:36;16.40;;;10.73;;
42226;SDS011;27892;52.378;13.122;2024-03-02T03:48:02;18.63;;;11.70;;
42226;SDS011;27892;52.378;13.122;2024-03-02T03:50:28;14.53;;;10.37;;
42226;SDS011;27892;52.378;13.122;2024-03-02T03:52:53;18.47;;;11.50;;
42226;SDS011;27892;52.378;13.122;2024-03-02T03:55:19;17.53;;;11.47;;
42226;SDS011;27892;52.378;13.122;2024-03-02T03:57:45;16.67;;;10.73;;
42226;SDS011;27892;52.378;13.122;2024-03-02T04:00:11;16.53;;;11.10;;
42226;SDS011;27892;52.378;13.122;2024-03-02T04:02:37;17.37;;;12.00;;
42226;SDS011;27892;52.378;13.122;2024-03-02T04:05:03;27.97;;;17.33;;
42226;SDS011;27892;52.378;13.122;2024-03-02T04:07:34;29.97;;;19.00;;
42226;SDS011;27892;52.378;13.122;2024-03-02T04:10:05;27.93;;;18.63;;
42226;SDS011;27892;52.378;13.122;2024-03-02T04:12:33;28.30;;;17.83;;
42226;SDS011;27892;52.378;13.122;2024-03-02T04:15:00;24.00;;;14.93;;
42226;SDS011;27892;52.378;13.122;2024-03-02T04:17:27;20.67;;;13.40;;
42226;SDS011;27892;52.378;13.122;2024-03-02T04:19:52;20.47;;;13.17;;
42226;SDS011;27892;52.378;13.122;2024-03-02T04:22:18;17.70;;;11.87;;
42226;SDS011;27892;52.378;13.122;2024-03-02T04:24:44;17.57;;;11.60;;
42226;SDS011;27892;52.378;13.122;2024-03-02T04:27:09;16.83;;;11.23;;
42226;SDS011;27892;52.378;13.122;2024-03-02T04:29:35;19.23;;;12.77;;
42226;SDS011;27892;52.378;13.122;2024-03-02T04:32:01;18.47;;;12.07;;
42226;SDS011;27892;52.378;13.122;2024-03-02T04:34:26;19.47;;;12.53;;
42226;SDS011;27892;52.378;13.122;2024-03-02T04:36:52;18.83;;;12.63;;
42226;SDS011;27892;52.378;13.122;2024-03-02T04:39:18;17.23;;;11.70;;
42226;SDS011;27892;52.378;13.122;2024-03-02T04:41:43;17.67;;;11.73;;
42226;SDS011;27892;52.378;13.122;2024-03-02T04:44:09;18.30;;;12.20;;
42226;SDS011;27892;52.378;13.122;2024-03-02T04:46:35;16.10;;;10.47;;
42226;SDS011;27892;52.378;13.122;2024-03-02T04:49:00;17.03;;;11.90;;
42226;SDS011;27892;52.378;13.122;2024-03-02T04:51:26;15.53;;;11.20;;
42226;SDS011;27892;52.378;13.122;2024-03-02T04:53:51;15.73;;;10.97;;
42226;SDS011;27892;52.378;13.122;2024-03-02T04:56:17;19.20;;;12.00;;
42226;SDS011;27892;52.378;13.122;2024-03-02T04:59:02;22.23;;;14.57;;
42226;SDS011;27892;52.378;13.122;2024-03-02T05:01:27;23.80;;;15.83;;
42226;SDS011;27892;52.378;13.122;2024-03-02T05:03:53;23.03;;;15.17;;
42226;SDS011;27892;52.378;13.122;2024-03-02T05:06:18;20.93;;;13.90;;
42226;SDS011;27892;52.378;13.122;2024-03-02T05:08:44;20.57;;;13.90;;
42226;SDS011;27892;52.378;13.122;2024-03-02T05:11:10;24.03;;;15.10;;
42226;SDS011;27892;52.378;13.122;2024-03-02T05:14:05;31.07;;;18.60;;
42226;SDS011;27892;52.378;13.122;2024-03-02T05:16:37;28.73;;;17.83;;
42226;SDS011;27892;52.378;13.122;2024-03-02T05:19:06;27.17;;;17.20;;
42226;SDS011;27892;52.378;13.122;2024-03-02T05:21:33;22.80;;;15.17;;
42226;SDS011;27892;52.378;13.122;2024-03-02T05:23:59;19.33;;;12.40;;
42226;SDS011;27892;52.378;13.122;2024-03-02T05:26:25;26.63;;;17.27;;
42226;SDS011;27892;52.378;13.122;2024-03-02T05:28:51;27.83;;;17.43;;
42226;SDS011;27892;52.378;13.122;2024-03-02T05:31:16;25.73;;;16.30;;
42226;SDS011;27892;52.378;13.122;2024-03-02T05:33:44;31.20;;;19.40;;
42226;SDS011;27892;52.378;13.122;2024-03-02T05:36:12;38.23;;;22.97;;
42226;SDS011;27892;52.378;13.122;2024-03-02T05:38:38;34.70;;;21.07;;
42226;SDS011;27892;52.378;13.122;2024-03-02T05:41:04;29.27;;;17.93;;
42226;SDS011;27892;52.378;13.122;2024-03-02T05:43:29;25.97;;;16.10;;
42226;SDS011;27892;52.378;13.122;2024-03-02T05:45:55;23.47;;;14.90;;
42226;SDS011;27892;52.378;13.122;2024-03-02T05:48:21;23.77;;;15.93;;
42226;SDS011;27892;52.378;13.122;2024-03-02T05:50:46;32.63;;;20.10;;
42226;SDS011;27892;52.378;13.122;2024-03-02T05:53:12;39.70;;;23.90;;
42226;SDS011;27892;52.378;13.122;2024-03-02T05:55:38;38.60;;;23.87;;
42226;SDS011;27892;52.378;13.122;2024-03-02T05:58:03;44.67;;;25.97;;
42226;SDS011;27892;52.378;13.122;2024-03-02T06:00:32;39.13;;;24.33;;
42226;SDS011;27892;52.378;13.122;2024-03-02T06:02:58;31.37;;;19.03;;
42226;SDS011;27892;52.378;13.122;2024-03-02T06:05:24;23.80;;;15.83;;
42226;SDS011;27892;52.378;13.122;2024-03-02T06:07:50;21.57;;;14.10;;
42226;SDS011;27892;52.378;13.122;2024-03-02T06:10:16;19.63;;;13.30;;
42226;SDS011;27892;52.378;13.122;2024-03-02T06:12:42;18.07;;;12.40;;
42226;SDS011;27892;52.378;13.122;2024-03-02T06:15:08;20.03;;;12.80;;
42226;SDS011;27892;52.378;13.122;2024-03-02T06:17:37;19.57;;;12.37;;
42226;SDS011;27892;52.378;13.122;2024-03-02T06:20:03;17.63;;;12.00;;
42226;SDS011;27892;52.378;13.122;2024-03-02T06:22:29;18.63;;;11.70;;
42226;SDS011;27892;52.378;13.122;2024-03-02T06:24:58;15.33;;;11.10;;
42226;SDS011;27892;52.378;13.122;2024-03-02T06:27:23;15.03;;;11.00;;
42226;SDS011;27892;52.378;13.122;2024-03-02T06:29:49;16.70;;;10.77;;
42226;SDS011;27892;52.378;13.122;2024-03-02T06:32:16;21.07;;;14.13;;
42226;SDS011;27892;52.378;13.122;2024-03-02T06:34:42;32.07;;;20.37;;
42226;SDS011;27892;52.378;13.122;2024-03-02T06:37:08;33.40;;;21.80;;
42226;SDS011;27892;52.378;13.122;2024-03-02T06:39:34;32.67;;;20.57;;
42226;SDS011;27892;52.378;13.122;2024-03-02T06:42:01;29.70;;;18.37;;
42226;SDS011;27892;52.378;13.122;2024-03-02T06:44:26;30.17;;;19.27;;
42226;SDS011;27892;52.378;13.122;2024-03-02T06:46:52;42.27;;;24.97;;
42226;SDS011;27892;52.378;13.122;2024-03-02T06:49:18;45.60;;;27.30;;
42226;SDS011;27892;52.378;13.122;2024-03-02T06:51:44;39.60;;;24.17;;
42226;SDS011;27892;52.378;13.122;2024-03-02T06:54:10;39.23;;;23.03;;
42226;SDS011;27892;52.378;13.122;2024-03-02T06:56:35;32.17;;;18.67;;
42226;SDS011;27892;52.378;13.122;2024-03-02T06:59:02;28.40;;;17.20;;
42226;SDS011;27892;52.378;13.122;2024-03-02T07:01:28;24.17;;;15.67;;
42226;SDS011;27892;52.378;13.122;2024-03-02T07:03:54;38.57;;;23.57;;
42226;SDS011;27892;52.378;13.122;2024-03-02T07:06:19;40.53;;;22.27;;
42226;SDS011;27892;52.378;13.122;2024-03-02T07:08:45;35.93;;;22.60;;
42226;SDS011;27892;52.378;13.122;2024-03-02T07:11:11;43.07;;;25.03;;
42226;SDS011;27892;52.378;13.122;2024-03-02T07:13:36;35.30;;;21.67;;
42226;SDS011;27892;52.378;13.122;2024-03-02T07:16:02;30.53;;;18.57;;
42226;SDS011;27892;52.378;13.122;2024-03-02T07:18:28;25.47;;;16.23;;
42226;SDS011;27892;52.378;13.122;2024-03-02T07:20:58;27.57;;;17.27;;
42226;SDS011;27892;52.378;13.122;2024-03-02T07:23:26;31.07;;;19.07;;
42226;SDS011;27892;52.378;13.122;2024-03-02T07:25:55;30.20;;;18.93;;
42226;SDS011;27892;52.378;13.122;2024-03-02T07:28:25;35.63;;;21.67;;
42226;SDS011;27892;52.378;13.122;2024-03-02T07:31:01;42.67;;;26.10;;
42226;SDS011;27892;52.378;13.122;2024-03-02T07:33:33;40.60;;;23.50;;
42226;SDS011;27892;52.378;13.122;2024-03-02T07:35:59;48.47;;;27.87;;
42226;SDS011;27892;52.378;13.122;2024-03-02T07:38:26;39.87;;;24.20;;
42226;SDS011;27892;52.378;13.122;2024-03-02T07:40:52;44.33;;;25.93;;
42226;SDS011;27892;52.378;13.122;2024-03-02T07:43:19;39.20;;;23.53;;
42226;SDS011;27892;52.378;13.122;2024-03-02T07:45:47;43.47;;;25.90;;
42226;SDS011;27892;52.378;13.122;2024-03-02T07:48:13;44.03;;;26.00;;
42226;SDS011;27892;52.378;13.122;2024-03-02T07:50:40;45.23;;;26.97;;
42226;SDS011;27892;52.378;13.122;2024-03-02T07:53:05;43.00;;;24.73;;
42226;SDS011;27892;52.378;13.122;2024-03-02T07:55:33;47.90;;;28.03;;
42226;SDS011;27892;52.378;13.122;2024-03-02T07:58:00;42.50;;;25.27;;
42226;SDS011;27892;52.378;13.122;2024-03-02T08:00:26;41.13;;;25.27;;
42226;SDS011;27892;52.378;13.122;2024-03-02T08:02:52;39.20;;;23.37;;
42226;SDS011;27892;52.378;13.122;2024-03-02T08:05:19;38.30;;;23.07;;
42226;SDS011;27892;52.378;13.122;2024-03-02T08:07:45;42.90;;;25.00;;
42226;SDS011;27892;52.378;13.122;2024-03-02T08:10:11;36.83;;;21.83;;
42226;SDS011;27892;52.378;13.122;2024-03-02T08:12:37;39.30;;;23.23;;
42226;SDS011;27892;52.378;13.122;2024-03-02T08:15:03;35.90;;;20.73;;
42226;SDS011;27892;52.378;13.122;2024-03-02T08:17:29;37.67;;;22.43;;
42226;SDS011;27892;52.378;13.122;2024-03-02T08:19:55;42.23;;;26.47;;
42226;SDS011;27892;52.378;13.122;2024-03-02T08:22:22;52.53;;;28.87;;
42226;SDS011;27892;52.378;13.122;2024-03-02T08:24:48;41.47;;;25.13;;
42226;SDS011;27892;52.378;13.122;2024-03-02T08:27:14;41.70;;;24.70;;
42226;SDS011;27892;52.378;13.122;2024-03-02T08:29:40;45.20;;;25.67;;
42226;SDS011;27892;52.378;13.122;2024-03-02T08:32:06;47.13;;;28.40;;
42226;SDS011;27892;52.378;13.122;2024-03-02T08:34:32;44.93;;;26.83;;
42226;SDS011;27892;52.378;13.122;2024-03-02T08:37:00;44.17;;;24.73;;
42226;SDS011;27892;52.378;13.122;2024-03-02T08:39:26;37.87;;;22.30;;
42226;SDS011;27892;52.378;13.122;2024-03-02T08:41:52;38.00;;;22.77;;
42226;SDS011;27892;52.378;13.122;2024-03-02T08:44:18;40.13;;;24.37;;
42226;SDS011;27892;52.378;13.122;2024-03-02T08:46:44;40.47;;;23.97;;
42226;SDS011;27892;52.378;13.122;2024-03-02T08:49:09;43.43;;;25.53;;
42226;SDS011;27892;52.378;13.122;2024-03-02T08:51:35;36.70;;;22.27;;
42226;SDS011;27892;52.378;13.122;2024-03-02T08:54:01;41.60;;;25.67;;
42226;SDS011;27892;52.378;13.122;2024-03-02T08:56:29;44.43;;;26.73;;
42226;SDS011;27892;52.378;13.122;2024-03-02T08:58:55;49.47;;;29.67;;
42226;SDS011;27892;52.378;13.122;2024-03-02T09:01:21;42.97;;;24.67;;
42226;SDS011;27892;52.378;13.122;2024-03-02T09:03:47;44.33;;;26.17;;
42226;SDS011;27892;52.378;13.122;2024-03-02T09:06:14;43.37;;;25.63;;
42226;SDS011;27892;52.378;13.122;2024-03-02T09:08:41;41.63;;;25.33;;
42226;SDS011;27892;52.378;13.122;2024-03-02T09:11:08;39.63;;;23.60;;
42226;SDS011;27892;52.378;13.122;2024-03-02T09:13:35;39.23;;;22.97;;
42226;SDS011;27892;52.378;13.122;2024-03-02T09:16:02;39.77;;;22.70;;
42226;SDS011;27892;52.378;13.122;2024-03-02T09:18:29;37.47;;;21.77;;
42226;SDS011;27892;52.378;13.122;2024-03-02T09:20:54;37.17;;;21.13;;
42226;SDS011;27892;52.378;13.122;2024-03-02T09:23:20;39.37;;;22.83;;
42226;SDS011;27892;52.378;13.122;2024-03-02T09:25:46;36.57;;;21.73;;
42226;SDS011;27892;52.378;13.122;2024-03-02T09:28:12;32.83;;;19.40;;
42226;SDS011;27892;52.378;13.122;2024-03-02T09:30:38;28.13;;;17.40;;
42226;SDS011;27892;52.378;13.122;2024-03-02T09:33:03;33.37;;;19.07;;
42226;SDS011;27892;52.378;13.122;2024-03-02T09:35:29;30.83;;;17.27;;
42226;SDS011;27892;52.378;13.122;2024-03-02T09:37:55;35.90;;;22.07;;
42226;SDS011;27892;52.378;13.122;2024-03-02T09:40:24;36.47;;;21.70;;
42226;SDS011;27892;52.378;13.122;2024-03-02T09:42:50;35.57;;;22.23;;
42226;SDS011;27892;52.378;13.122;2024-03-02T09:45:22;39.20;;;23.30;;
42226;SDS011;27892;52.378;13.122;2024-03-02T09:47:49;35.30;;;21.03;;
42226;SDS011;27892;52.378;13.122;2024-03-02T09:50:15;36.27;;;22.43;;
42226;SDS011;27892;52.378;13.122;2024-03-02T09:52:44;31.47;;;19.27;;
42226;SDS011;27892;52.378;13.122;2024-03-02T09:55:13;34.57;;;20.60;;
42226;SDS011;27892;52.378;13.122;2024-03-02T09:57:40;38.93;;;22.97;;
42226;SDS011;27892;52.378;13.122;2024-03-02T10:00:07;37.93;;;22.33;;
42226;SDS011;27892;52.378;13.122;2024-03-02T10:02:34;47.63;;;28.40;;
42226;SDS011;27892;52.378;13.122;2024-03-02T10:04:59;33.77;;;22.17;;
42226;SDS011;27892;52.378;13.122;2024-03-02T10:07:25;32.47;;;19.30;;
42226;SDS011;27892;52.378;13.122;2024-03-02T10:09:51;28.13;;;17.10;;
42226;SDS011;27892;52.378;13.122;2024-03-02T10:12:17;29.67;;;18.13;;
42226;SDS011;27892;52.378;13.122;2024-03-02T10:14:47;31.17;;;19.67;;
42226;SDS011;27892;52.378;13.122;2024-03-02T10:17:17;31.03;;;19.03;;
42226;SDS011;27892;52.378;13.122;2024-03-02T10:19:43;33.83;;;19.27;;
42226;SDS011;27892;52.378;13.122;2024-03-02T10:22:09;31.57;;;19.73;;
42226;SDS011;27892;52.378;13.122;2024-03-02T10:24:48;29.67;;;18.27;;
42226;SDS011;27892;52.378;13.122;2024-03-02T10:27:15;33.53;;;20.13;;
42226;SDS011;27892;52.378;13.122;2024-03-02T10:29:45;30.13;;;18.37;;
42226;SDS011;27892;52.378;13.122;2024-03-02T10:32:18;25.67;;;15.47;;
42226;SDS011;27892;52.378;13.122;2024-03-02T10:34:48;34.00;;;21.40;;
42226;SDS011;27892;52.378;13.122;2024-03-02T10:37:15;32.17;;;21.00;;
42226;SDS011;27892;52.378;13.122;2024-03-02T10:39:42;26.90;;;17.30;;
42226;SDS011;27892;52.378;13.122;2024-03-02T10:42:08;26.83;;;16.67;;
42226;SDS011;27892;52.378;13.122;2024-03-02T10:44:34;30.73;;;18.97;;
42226;SDS011;27892;52.378;13.122;2024-03-02T10:47:00;30.33;;;18.50;;
42226;SDS011;27892;52.378;13.122;2024-03-02T10:49:30;26.73;;;16.97;;
42226;SDS011;27892;52.378;13.122;2024-03-02T10:52:00;29.03;;;18.33;;
42226;SDS011;27892;52.378;13.122;2024-03-02T10:54:26;45.80;;;29.00;;
42226;SDS011;27892;52.378;13.122;2024-03-02T10:56:58;34.33;;;21.10;;
42226;SDS011;27892;52.378;13.122;2024-03-02T10:59:28;29.77;;;18.63;;
42226;SDS011;27892;52.378;13.122;2024-03-02T11:02:01;28.73;;;17.77;;
42226;SDS011;27892;52.378;13.122;2024-03-02T11:04:28;24.20;;;15.83;;
42226;SDS011;27892;52.378;13.122;2024-03-02T11:07:00;28.83;;;17.20;;
42226;SDS011;27892;52.378;13.122;2024-03-02T11:09:33;26.37;;;16.00;;
42226;SDS011;27892;52.378;13.122;2024-03-02T11:12:12;19.63;;;13.03;;
42226;SDS011;27892;52.378;13.122;2024-03-02T11:14:43;18.80;;;12.70;;
42226;SDS011;27892;52.378;13.122;2024-03-02T11:17:09;27.30;;;17.53;;
42226;SDS011;27892;52.378;13.122;2024-03-02T11:19:39;26.40;;;17.37;;
42226;SDS011;27892;52.378;13.122;2024-03-02T11:22:05;22.73;;;14.40;;
42226;SDS011;27892;52.378;13.122;2024-03-02T11:24:32;19.83;;;13.00;;
42226;SDS011;27892;52.378;13.122;2024-03-02T11:27:01;19.17;;;12.30;;
42226;SDS011;27892;52.378;13.122;2024-03-02T11:32:14;27.43;;;15.90;;
42226;SDS011;27892;52.378;13.122;2024-03-02T11:34:43;21.30;;;14.03;;
42226;SDS011;27892;52.378;13.122;2024-03-02T11:37:11;23.07;;;15.07;;
42226;SDS011;27892;52.378;13.122;2024-03-02T11:39:38;19.53;;;13.57;;
42226;SDS011;27892;52.378;13.122;2024-03-02T11:42:09;22.33;;;14.10;;
42226;SDS011;27892;52.378;13.122;2024-03-02T11:44:42;38.80;;;23.40;;
42226;SDS011;27892;52.378;13.122;2024-03-02T11:47:13;25.80;;;16.60;;
42226;SDS011;27892;52.378;13.122;2024-03-02T11:52:11;20.60;;;13.43;;
42226;SDS011;27892;52.378;13.122;2024-03-02T11:54:41;18.42;;;12.50;;
42226;SDS011;27892;52.378;13.122;2024-03-02T11:57:17;21.88;;;14.80;;
42226;SDS011;27892;52.378;13.122;2024-03-02T11:59:44;16.77;;;11.60;;
42226;SDS011;27892;52.378;13.122;2024-03-02T12:02:14;23.63;;;15.60;;
42226;SDS011;27892;52.378;13.122;2024-03-02T12:04:42;17.77;;;12.23;;
42226;SDS011;27892;52.378;13.122;2024-03-02T12:07:08;25.55;;;15.40;;
42226;SDS011;27892;52.378;13.122;2024-03-02T12:09:37;22.43;;;14.67;;
42226;SDS011;27892;52.378;13.122;2024-03-02T12:14:36;18.73;;;12.67;;
42226;SDS011;27892;52.378;13.122;2024-03-02T12:17:04;21.15;;;13.48;;
42226;SDS011;27892;52.378;13.122;2024-03-02T12:19:31;24.05;;;15.93;;
42226;SDS011;27892;52.378;13.122;2024-03-02T12:21:58;23.20;;;15.52;;
42226;SDS011;27892;52.378;13.122;2024-03-02T12:24:26;20.25;;;14.75;;
42226;SDS011;27892;52.378;13.122;2024-03-02T12:26:53;19.48;;;14.50;;
42226;SDS011;27892;52.378;13.122;2024-03-02T12:29:19;18.05;;;12.73;;
42226;SDS011;27892;52.378;13.122;2024-03-02T12:32:34;18.55;;;11.63;;
42226;SDS011;27892;52.378;13.122;2024-03-02T12:35:04;17.80;;;12.20;;
42226;SDS011;27892;52.378;13.122;2024-03-02T12:37:37;17.25;;;12.27;;
42226;SDS011;27892;52.378;13.122;2024-03-02T12:40:09;16.77;;;11.82;;
42226;SDS011;27892;52.378;13.122;2024-03-02T12:42:36;13.52;;;9.35;;
42226;SDS011;27892;52.378;13.122;2024-03-02T12:45:02;15.52;;;10.77;;
42226;SDS011;27892;52.378;13.122;2024-03-02T12:47:29;34.35;;;21.75;;
42226;SDS011;27892;52.378;13.122;2024-03-02T12:49:55;23.23;;;15.63;;
42226;SDS011;27892;52.378;13.122;2024-03-02T12:52:21;18.07;;;13.00;;
42226;SDS011;27892;52.378;13.122;2024-03-02T12:54:47;14.50;;;10.67;;
42226;SDS011;27892;52.378;13.122;2024-03-02T12:57:20;11.93;;;8.60;;
42226;SDS011;27892;52.378;13.122;2024-03-02T12:59:46;12.97;;;8.80;;
42226;SDS011;27892;52.378;13.122;2024-03-02T13:02:19;12.80;;;8.90;;
42226;SDS011;27892;52.378;13.122;2024-03-02T13:04:54;17.97;;;10.27;;
42226;SDS011;27892;52.378;13.122;2024-03-02T13:07:21;15.03;;;10.60;;
42226;SDS011;27892;52.378;13.122;2024-03-02T13:09:49;14.57;;;9.48;;
42226;SDS011;27892;52.378;13.122;2024-03-02T13:12:15;13.97;;;9.80;;
42226;SDS011;27892;52.378;13.122;2024-03-02T13:14:42;21.20;;;13.97;;
42226;SDS011;27892;52.378;13.122;2024-03-02T13:17:08;17.77;;;11.87;;
42226;SDS011;27892;52.378;13.122;2024-03-02T13:19:34;14.40;;;9.20;;
42226;SDS011;27892;52.378;13.122;2024-03-02T13:22:00;14.80;;;10.37;;
42226;SDS011;27892;52.378;13.122;2024-03-02T13:24:29;19.93;;;13.03;;
42226;SDS011;27892;52.378;13.122;2024-03-02T13:26:56;19.77;;;13.90;;
42226;SDS011;27892;52.378;13.122;2024-03-02T13:29:23;22.27;;;14.37;;
42226;SDS011;27892;52.378;13.122;2024-03-02T13:31:49;18.40;;;11.77;;
42226;SDS011;27892;52.378;13.122;2024-03-02T13:34:15;28.97;;;18.57;;
42226;SDS011;27892;52.378;13.122;2024-03-02T13:36:41;49.60;;;29.80;;
42226;SDS011;27892;52.378;13.122;2024-03-02T13:39:06;25.10;;;16.70;;
42226;SDS011;27892;52.378;13.122;2024-03-02T13:41:35;20.03;;;13.03;;
42226;SDS011;27892;52.378;13.122;2024-03-02T13:44:01;21.13;;;13.57;;
42226;SDS011;27892;52.378;13.122;2024-03-02T13:46:27;16.63;;;11.27;;
42226;SDS011;27892;52.378;13.122;2024-03-02T13:48:54;15.03;;;10.43;;
42226;SDS011;27892;52.378;13.122;2024-03-02T13:51:20;12.17;;;8.33;;
42226;SDS011;27892;52.378;13.122;2024-03-02T13:53:46;14.43;;;9.77;;
42226;SDS011;27892;52.378;13.122;2024-03-02T13:56:12;12.53;;;8.63;;
42226;SDS011;27892;52.378;13.122;2024-03-02T13:58:37;15.73;;;10.73;;
42226;SDS011;27892;52.378;13.122;2024-03-02T14:01:03;13.57;;;10.00;;
42226;SDS011;27892;52.378;13.122;2024-03-02T14:03:30;17.13;;;10.60;;
42226;SDS011;27892;52.378;13.122;2024-03-02T14:05:56;14.47;;;9.63;;
42226;SDS011;27892;52.378;13.122;2024-03-02T14:08:22;12.50;;;8.15;;
42226;SDS011;27892;52.378;13.122;2024-03-02T14:10:48;11.70;;;8.10;;
42226;SDS011;27892;52.378;13.122;2024-03-02T14:13:14;13.17;;;9.27;;
42226;SDS011;27892;52.378;13.122;2024-03-02T14:15:41;11.90;;;8.17;;
42226;SDS011;27892;52.378;13.122;2024-03-02T14:18:07;13.03;;;8.40;;